createdAt,value
2022-12-13T00:01:27.846Z,100986.91
2022-12-13T00:03:56.601Z,100987.13
2022-12-13T00:06:23.471Z,100978.56
2022-12-13T00:08:50.326Z,100972.38
2022-12-13T00:11:17.985Z,100976.06
2022-12-13T00:13:46.694Z,100976.19
2022-12-13T00:16:16.691Z,100985.84
2022-12-13T00:18:44.093Z,100978.78
2022-12-13T00:21:17.044Z,100980.63
2022-12-13T00:23:43.979Z,100979.09
2022-12-13T00:26:15.036Z,100972.06
2022-12-13T00:28:42.609Z,100972.09
2022-12-13T00:31:44.644Z,100968.59
2022-12-13T00:33:57.185Z,100976.53
2022-12-13T00:36:23.845Z,100973.97
2022-12-13T00:39:10.750Z,100966.00
2022-12-13T00:41:37.471Z,100974.88
2022-12-13T00:44:05.169Z,100981.94
2022-12-13T00:46:32.377Z,100974.06
2022-12-13T00:49:01.100Z,100977.84
2022-12-13T00:51:30.615Z,100975.19
2022-12-13T00:53:58.006Z,100988.38
2022-12-13T00:56:27.649Z,100983.16
2022-12-13T00:58:55.353Z,100975.28
2022-12-13T01:01:25.555Z,100984.81
2022-12-13T01:03:56.755Z,100984.81
2022-12-13T01:06:27.354Z,100973.41
2022-12-13T01:08:54.015Z,100978.53
2022-12-13T01:11:20.772Z,100970.56
2022-12-13T01:13:48.023Z,100971.41
2022-12-13T01:16:15.225Z,100979.41
2022-12-13T01:18:42.259Z,100978.53
2022-12-13T01:21:15.045Z,100975.91
2022-12-13T01:23:42.082Z,100967.94
2022-12-13T01:26:12.739Z,100972.31
2022-12-13T01:28:40.137Z,100968.72
2022-12-13T01:31:09.997Z,100967.84
2022-12-13T01:33:37.044Z,100967.81
2022-12-13T01:36:05.983Z,100964.28
2022-12-13T01:38:37.941Z,100968.69
2022-12-13T01:41:16.927Z,100964.31
2022-12-13T01:43:44.637Z,100971.38
2022-12-13T01:46:12.185Z,100969.66
2022-12-13T01:48:50.114Z,100970.56
2022-12-13T01:51:21.566Z,100979.44
2022-12-13T01:53:50.291Z,100978.81
2022-12-13T01:56:26.885Z,100980.66
2022-12-13T01:58:56.451Z,100977.03
2022-12-13T02:01:24.164Z,100974.28
2022-12-13T02:03:50.990Z,100974.38
2022-12-13T02:06:23.214Z,100972.63
2022-12-13T02:08:49.906Z,100974.31
2022-12-13T02:11:17.250Z,100970.91
2022-12-13T02:13:43.922Z,100964.69
2022-12-13T02:16:29.376Z,100965.44
2022-12-13T02:19:21.240Z,100980.75
2022-12-13T02:21:50.900Z,100976.38
2022-12-13T02:24:43.812Z,100974.56
2022-12-13T02:27:30.834Z,100974.56
2022-12-13T02:30:30.513Z,100963.03
2022-12-13T02:33:11.703Z,100969.13
2022-12-13T02:35:58.282Z,100964.94
2022-12-13T02:38:56.068Z,100962.16
2022-12-13T02:41:50.140Z,100959.41
2022-12-13T02:44:25.517Z,100958.50
2022-12-13T02:46:57.439Z,100953.13
2022-12-13T02:49:27.868Z,100959.38
2022-12-13T02:51:56.689Z,100957.66
2022-12-13T02:54:24.867Z,100959.41
2022-12-13T02:56:59.977Z,100954.09
2022-12-13T02:59:36.268Z,100944.34
2022-12-13T03:02:32.467Z,100952.19
2022-12-13T03:05:26.769Z,100935.31
2022-12-13T03:08:11.576Z,100940.72
2022-12-13T03:10:54.990Z,100942.56
2022-12-13T03:13:38.912Z,100938.25
2022-12-13T03:16:14.919Z,100932.91
2022-12-13T03:18:53.864Z,100934.72
2022-12-13T03:21:20.835Z,100938.19
2022-12-13T03:23:47.826Z,100928.59
2022-12-13T03:26:18.747Z,100927.78
2022-12-13T03:28:45.691Z,100933.91
2022-12-13T03:31:12.558Z,100933.84
2022-12-13T03:33:39.296Z,100932.97
2022-12-13T03:36:07.032Z,100925.91
2022-12-13T03:38:34.025Z,100929.47
2022-12-13T03:41:04.583Z,100924.03
2022-12-13T03:43:31.548Z,100919.66
2022-12-13T03:45:58.292Z,100925.75
2022-12-13T03:48:25.108Z,100935.66
2022-12-13T03:50:53.886Z,100935.66
2022-12-13T03:53:33.718Z,100928.47
2022-12-13T03:56:03.611Z,100924.97
2022-12-13T03:58:35.014Z,100928.47
2022-12-13T04:01:09.158Z,100922.25
2022-12-13T04:03:37.336Z,100914.34
2022-12-13T04:06:05.060Z,100914.34
2022-12-13T04:08:32.290Z,100917.78
2022-12-13T04:10:59.115Z,100915.03
2022-12-13T04:13:34.591Z,100915.91
2022-12-13T04:16:02.717Z,100909.66
2022-12-13T04:18:29.697Z,100908.81
2022-12-13T04:20:57.542Z,100913.22
2022-12-13T04:23:24.465Z,100909.63
2022-12-13T04:25:51.545Z,100906.09
2022-12-13T04:28:21.413Z,100911.44
2022-12-13T04:30:53.198Z,100912.47
2022-12-13T04:33:22.479Z,100913.31
2022-12-13T04:35:49.741Z,100909.72
2022-12-13T04:38:16.725Z,100913.34
2022-12-13T04:40:43.405Z,100915.91
2022-12-13T04:43:10.133Z,100921.09
2022-12-13T04:45:36.864Z,100911.44
2022-12-13T04:48:03.858Z,100917.63
2022-12-13T04:50:30.686Z,100917.63
2022-12-13T04:52:57.434Z,100919.34
2022-12-13T04:55:24.084Z,100917.53
2022-12-13T04:57:50.894Z,100922.88
2022-12-13T05:00:17.754Z,100921.03
2022-12-13T05:02:44.556Z,100922.66
2022-12-13T05:05:12.008Z,100920.69
2022-12-13T05:07:42.031Z,100915.50
2022-12-13T05:10:10.491Z,100913.75
2022-12-13T05:12:37.225Z,100909.28
2022-12-13T05:15:04.400Z,100911.91
2022-12-13T05:17:31.831Z,100913.66
2022-12-13T05:19:58.498Z,100906.56
2022-12-13T05:22:25.242Z,100902.97
2022-12-13T05:24:51.907Z,100909.13
2022-12-13T05:27:24.664Z,100904.72
2022-12-13T05:30:03.408Z,100912.63
2022-12-13T05:32:43.816Z,100895.53
2022-12-13T05:35:22.751Z,100899.94
2022-12-13T05:37:54.250Z,100900.84
2022-12-13T05:40:22.437Z,100903.44
2022-12-13T05:42:49.344Z,100903.50
2022-12-13T05:45:18.124Z,100906.19
2022-12-13T05:47:45.745Z,100895.31
2022-12-13T05:50:13.282Z,100891.13
2022-12-13T05:52:40.365Z,100891.94
2022-12-13T05:55:07.488Z,100883.03
2022-12-13T05:57:35.220Z,100889.38
2022-12-13T06:00:02.292Z,100899.03
2022-12-13T06:02:29.139Z,100891.09
2022-12-13T06:04:55.912Z,100891.94
2022-12-13T06:07:22.615Z,100888.38
2022-12-13T06:09:49.350Z,100899.03
2022-12-13T06:12:31.854Z,100891.69
2022-12-13T06:15:01.024Z,100889.22
2022-12-13T06:17:36.832Z,100894.34
2022-12-13T06:20:24.107Z,100883.81
2022-12-13T06:22:54.674Z,100890.00
2022-12-13T06:25:31.237Z,100886.34
2022-12-13T06:28:01.044Z,100873.03
2022-12-13T06:30:29.556Z,100881.09
2022-12-13T06:32:56.861Z,100887.34
2022-12-13T06:35:28.335Z,100880.75
2022-12-13T06:38:01.264Z,100874.69
2022-12-13T06:40:30.599Z,100871.94
2022-12-13T06:42:57.520Z,100885.44
2022-12-13T06:45:24.535Z,100889.09
2022-12-13T06:47:51.244Z,100895.44
2022-12-13T06:50:18.033Z,100883.03
2022-12-13T06:52:46.855Z,100878.47
2022-12-13T06:58:01.133Z,100891.06
2022-12-13T07:00:36.811Z,100889.94
2022-12-13T07:03:05.081Z,100892.59
2022-12-13T07:05:31.892Z,100901.78
2022-12-13T07:07:58.803Z,100894.59
2022-12-13T07:10:25.503Z,100886.25
2022-12-13T07:12:52.189Z,100898.03
2022-12-13T07:15:18.965Z,100901.69
2022-12-13T07:17:50.212Z,100908.44
2022-12-13T07:20:17.115Z,100906.72
2022-12-13T07:22:48.493Z,100907.75
2022-12-13T07:25:27.190Z,100903.44
2022-12-13T07:28:14.401Z,100901.50
2022-12-13T07:30:42.001Z,100903.41
2022-12-13T07:33:09.484Z,100907.75
2022-12-13T07:35:37.781Z,100912.97
2022-12-13T07:38:06.114Z,100904.16
2022-12-13T07:40:37.599Z,100903.31
2022-12-13T07:43:05.701Z,100906.03
2022-12-13T07:45:32.894Z,100913.19
2022-12-13T07:48:04.439Z,100917.56
2022-12-13T07:50:37.011Z,100920.38
2022-12-13T07:53:08.576Z,100935.66
2022-12-13T07:55:36.566Z,100939.34
2022-12-13T07:58:21.529Z,100938.31
2022-12-13T08:00:48.765Z,100932.84
2022-12-13T08:03:25.447Z,100931.94
2022-12-13T08:06:10.455Z,100942.50
2022-12-13T08:08:38.205Z,100942.56
2022-12-13T08:11:06.312Z,100940.84
2022-12-13T08:13:33.929Z,100945.16
2022-12-13T08:16:02.988Z,100946.19
2022-12-13T08:18:30.535Z,100941.81
2022-12-13T08:21:01.900Z,100942.75
2022-12-13T08:23:30.598Z,100940.97
2022-12-13T08:25:57.689Z,100935.63
2022-12-13T08:28:27.230Z,100940.97
2022-12-13T08:30:54.292Z,100935.56
2022-12-13T08:33:21.741Z,100935.53
2022-12-13T08:35:48.834Z,100932.97
2022-12-13T08:38:15.489Z,100940.84
2022-12-13T08:40:51.667Z,100935.34
2022-12-13T08:43:18.710Z,100932.69
2022-12-13T08:45:51.792Z,100928.91
2022-12-13T08:48:18.791Z,100926.25
2022-12-13T08:50:45.705Z,100922.50
2022-12-13T08:53:29.608Z,100925.16
2022-12-13T08:56:01.913Z,100915.22
2022-12-13T08:58:29.318Z,100918.41
2022-12-13T09:00:56.255Z,100918.41
2022-12-13T09:03:23.524Z,100913.06
2022-12-13T09:05:50.574Z,100926.13
2022-12-13T09:08:24.105Z,100918.81
2022-12-13T09:10:59.680Z,100912.22
2022-12-13T09:13:31.298Z,100911.19
2022-12-13T09:16:03.945Z,100914.09
2022-12-13T09:18:36.558Z,100915.06
2022-12-13T09:21:12.670Z,100916.38
2022-12-13T09:23:46.277Z,100919.84
2022-12-13T09:26:15.284Z,100921.56
2022-12-13T09:28:42.424Z,100932.34
2022-12-13T09:31:18.638Z,100948.75
2022-12-13T09:33:46.608Z,100942.56
2022-12-13T09:36:16.249Z,100945.31
2022-12-13T09:38:43.479Z,100951.53
2022-12-13T09:41:28.564Z,100950.69
2022-12-13T09:44:03.292Z,100961.47
2022-12-13T09:46:44.970Z,100959.38
2022-12-13T09:49:23.216Z,100954.00
2022-12-13T09:52:11.181Z,100952.06
2022-12-13T09:54:47.824Z,100945.81
2022-12-13T09:57:32.220Z,100952.81
2022-12-13T10:00:14.688Z,100953.69
2022-12-13T10:03:14.735Z,100938.41
2022-12-13T10:05:45.867Z,100935.59
2022-12-13T10:08:25.202Z,100937.03
2022-12-13T10:10:53.185Z,100942.59
2022-12-13T10:13:22.382Z,100949.59
2022-12-13T10:16:04.642Z,100938.81
2022-12-13T10:18:40.018Z,100943.09
2022-12-13T10:21:27.855Z,100931.34
2022-12-13T10:26:41.670Z,100935.34
2022-12-13T10:29:10.008Z,100933.41
2022-12-13T10:31:45.729Z,100942.38
2022-12-13T10:34:29.786Z,100935.84
2022-12-13T10:36:59.592Z,100936.91
2022-12-13T10:39:39.945Z,100946.69
2022-12-13T10:42:22.875Z,100959.16
2022-12-13T10:45:10.509Z,100952.00
2022-12-13T10:47:37.346Z,100957.09
2022-12-13T10:50:04.221Z,100953.44
2022-12-13T10:52:43.383Z,100949.94
2022-12-13T10:55:28.720Z,100948.47
2022-12-13T10:58:07.394Z,100948.56
2022-12-13T11:00:45.260Z,100951.38
2022-12-13T11:03:32.427Z,100945.75
2022-12-13T11:06:15.467Z,100942.16
2022-12-13T11:08:42.097Z,100945.13
2022-12-13T11:11:10.147Z,100945.00
2022-12-13T11:13:54.256Z,100941.25
2022-12-13T11:16:26.830Z,100944.81
2022-12-13T11:19:02.945Z,100950.03
2022-12-13T11:21:32.737Z,100944.47
2022-12-13T11:24:02.604Z,100947.34
2022-12-13T11:26:32.574Z,100951.22
2022-12-13T11:29:34.318Z,100958.44
2022-12-13T11:32:22.571Z,100955.56
2022-12-13T11:35:09.226Z,100961.78
2022-12-13T11:38:02.325Z,100959.13
2022-12-13T11:41:00.653Z,100971.69
2022-12-13T11:43:44.199Z,100956.06
2022-12-13T11:46:19.755Z,100960.81
2022-12-13T11:49:00.460Z,100969.97
2022-12-13T11:51:36.204Z,100973.53
2022-12-13T11:54:25.232Z,100964.69
2022-12-13T11:57:00.606Z,100976.88
2022-12-13T11:59:39.834Z,100963.16
2022-12-13T12:02:25.808Z,100968.66
2022-12-13T12:05:00.037Z,100972.38
2022-12-13T12:08:12.610Z,100964.38
2022-12-13T12:10:45.721Z,100971.31
2022-12-13T12:13:24.568Z,100972.16
2022-12-13T12:16:06.594Z,100973.38
2022-12-13T12:18:33.444Z,100978.38
2022-12-13T12:21:05.167Z,100974.19
2022-12-13T12:23:44.345Z,100970.31
2022-12-13T12:26:21.819Z,100966.72
2022-12-13T12:29:10.657Z,100963.97
2022-12-13T12:32:03.604Z,100971.00
2022-12-13T12:34:50.120Z,100972.00
2022-12-13T12:37:26.853Z,100974.66
2022-12-13T12:40:52.131Z,100974.88
2022-12-13T12:43:37.464Z,100978.56
2022-12-13T12:46:13.279Z,100979.22
2022-12-13T12:49:03.006Z,100985.66
2022-12-13T12:51:51.173Z,100982.31
2022-12-13T12:54:32.447Z,100984.06
2022-12-13T12:57:56.726Z,100980.31
2022-12-13T13:00:50.440Z,100968.25
2022-12-13T13:03:26.998Z,100970.88
2022-12-13T13:06:01.878Z,100969.97
2022-12-13T13:09:07.551Z,100973.75
2022-12-13T13:11:43.212Z,100971.03
2022-12-13T13:14:28.276Z,100974.53
2022-12-13T13:16:55.816Z,100978.38
2022-12-13T13:19:43.181Z,100972.88
2022-12-13T13:22:43.465Z,100970.28
2022-12-13T13:25:22.999Z,100961.22
2022-12-13T13:27:53.566Z,100952.53
2022-12-13T13:30:22.526Z,100960.19
2022-12-13T13:32:51.572Z,100956.06
2022-12-13T13:35:33.515Z,100947.38
2022-12-13T13:38:05.278Z,100947.31
2022-12-13T13:40:37.142Z,100948.72
2022-12-13T13:43:06.844Z,100950.13
2022-12-13T13:45:54.569Z,100945.03
2022-12-13T13:48:36.921Z,100955.22
2022-12-13T13:51:03.562Z,100943.22
2022-12-13T13:53:42.848Z,100952.84
2022-12-13T13:56:21.679Z,100937.56
2022-12-13T13:58:51.514Z,100941.38
2022-12-13T14:01:59.642Z,100935.19
2022-12-13T14:05:06.579Z,100918.63
2022-12-13T14:07:51.266Z,100919.38
2022-12-13T14:10:37.371Z,100903.25
2022-12-13T14:13:23.121Z,100904.28
2022-12-13T14:16:27.628Z,100908.03
2022-12-13T14:19:16.805Z,100917.81
2022-12-13T14:21:52.343Z,100916.72
2022-12-13T14:24:39.695Z,100922.88
2022-12-13T14:27:18.516Z,100923.53
2022-12-13T14:29:57.852Z,100909.47
2022-12-13T14:32:31.034Z,100910.28
2022-12-13T14:34:59.514Z,100909.28
2022-12-13T14:37:56.671Z,100920.13
2022-12-13T14:40:51.810Z,100925.63
2022-12-13T14:43:32.823Z,100922.44
2022-12-13T14:46:01.248Z,100931.56
2022-12-13T14:48:33.793Z,100920.84
2022-12-13T14:51:00.565Z,100931.44
2022-12-13T14:53:43.007Z,100922.44
2022-12-13T14:56:28.267Z,100912.59
2022-12-13T14:59:01.313Z,100916.38
2022-12-13T15:01:37.184Z,100921.81
2022-12-13T15:04:22.742Z,100908.19
2022-12-13T15:06:58.630Z,100896.47
2022-12-13T15:09:29.174Z,100910.28
2022-12-13T15:12:14.580Z,100904.44
2022-12-13T15:14:45.326Z,100894.25
2022-12-13T15:17:32.322Z,100891.63
2022-12-13T15:20:00.472Z,100889.88
2022-12-13T15:22:29.639Z,100884.69
2022-12-13T15:24:58.016Z,100879.88
2022-12-13T15:27:25.650Z,100879.28
2022-12-13T15:29:54.375Z,100883.63
2022-12-13T15:32:23.295Z,100875.19
2022-12-13T15:34:51.550Z,100863.38
2022-12-13T15:37:44.657Z,100866.59
2022-12-13T15:40:15.013Z,100857.69
2022-12-13T15:42:47.111Z,100849.78
2022-12-13T15:45:23.464Z,100844.09
2022-12-13T15:47:51.227Z,100846.19
2022-12-13T15:50:35.195Z,100844.25
2022-12-13T15:53:35.937Z,100846.19
2022-12-13T15:56:09.503Z,100837.72
2022-12-13T15:58:37.253Z,100843.38
2022-12-13T16:01:06.745Z,100846.50
2022-12-13T16:03:44.644Z,100844.63
2022-12-13T16:06:18.226Z,100843.31
2022-12-13T16:08:49.442Z,100840.72
2022-12-13T16:11:26.757Z,100844.28
2022-12-13T16:13:58.229Z,100844.38
2022-12-13T16:16:31.351Z,100834.97
2022-12-13T16:19:00.616Z,100837.59
2022-12-13T16:21:28.811Z,100842.13
2022-12-13T16:23:55.467Z,100843.09
2022-12-13T16:26:26.163Z,100840.63
2022-12-13T16:28:53.878Z,100838.88
2022-12-13T16:31:25.564Z,100839.59
2022-12-13T16:33:52.666Z,100839.72
2022-12-13T16:36:19.511Z,100820.63
2022-12-13T16:38:46.327Z,100820.59
2022-12-13T16:41:14.721Z,100817.38
2022-12-13T16:43:55.924Z,100817.53
2022-12-13T16:47:13.327Z,100813.31
2022-12-13T16:49:26.589Z,100802.19
2022-12-13T16:51:54.005Z,100804.22
2022-12-13T16:54:22.337Z,100802.41
2022-12-13T16:56:50.005Z,100802.88
2022-12-13T16:59:20.157Z,100803.00
2022-12-13T17:01:47.046Z,100805.78
2022-12-13T17:04:20.528Z,100803.91
2022-12-13T17:06:50.014Z,100798.16
2022-12-13T17:09:17.617Z,100805.47
2022-12-13T17:11:44.404Z,100810.28
2022-12-13T17:14:11.476Z,100805.63
2022-12-13T17:16:38.253Z,100799.56
2022-12-13T17:19:05.235Z,100804.03
2022-12-13T17:21:32.111Z,100794.88
2022-12-13T17:24:01.104Z,100796.13
2022-12-13T17:26:29.418Z,100797.66
2022-12-13T17:28:56.382Z,100793.75
2022-12-13T17:31:23.289Z,100781.47
2022-12-13T17:33:50.196Z,100786.69
2022-12-13T17:36:17.416Z,100787.75
2022-12-13T17:38:46.548Z,100777.81
2022-12-13T17:41:14.775Z,100778.72
2022-12-13T17:43:42.974Z,100780.50
2022-12-13T17:46:17.541Z,100776.44
2022-12-13T17:48:45.612Z,100777.34
2022-12-13T17:51:14.036Z,100771.41
2022-12-13T17:53:42.314Z,100753.53
2022-12-13T17:56:12.259Z,100756.22
2022-12-13T17:58:40.106Z,100755.50
2022-12-13T18:01:15.824Z,100755.28
2022-12-13T18:03:43.299Z,100755.44
2022-12-13T18:06:10.620Z,100759.16
2022-12-13T18:08:39.422Z,100762.66
2022-12-13T18:13:55.283Z,100761.06
2022-12-13T18:16:34.110Z,100757.41
2022-12-13T18:19:08.105Z,100752.63
2022-12-13T18:21:36.648Z,100754.13
2022-12-13T18:24:04.025Z,100754.34
2022-12-13T18:26:30.764Z,100760.09
2022-12-13T18:28:57.603Z,100745.47
2022-12-13T18:31:25.456Z,100740.22
2022-12-13T18:33:53.869Z,100731.47
2022-12-13T18:36:24.188Z,100734.91
2022-12-13T18:38:51.488Z,100742.31
2022-12-13T18:41:22.138Z,100747.66
2022-12-13T18:43:55.838Z,100748.75
2022-12-13T18:46:23.008Z,100729.94
2022-12-13T18:48:49.833Z,100731.94
2022-12-13T18:51:18.284Z,100728.19
2022-12-13T18:53:45.613Z,100723.16
2022-12-13T18:56:18.736Z,100709.03
2022-12-13T18:58:46.595Z,100712.44
2022-12-13T19:01:14.562Z,100714.28
2022-12-13T19:03:43.977Z,100720.56
2022-12-13T19:06:16.682Z,100728.16
2022-12-13T19:08:43.635Z,100738.19
2022-12-13T19:11:10.916Z,100729.16
2022-12-13T19:13:37.744Z,100742.69
2022-12-13T19:16:07.883Z,100737.44
2022-12-13T19:18:35.699Z,100736.72
2022-12-13T19:21:02.690Z,100735.69
2022-12-13T19:23:29.959Z,100745.72
2022-12-13T19:25:56.958Z,100746.56
2022-12-13T19:28:23.806Z,100751.19
2022-12-13T19:30:50.503Z,100745.81
2022-12-13T19:33:18.431Z,100733.81
2022-12-13T19:35:46.953Z,100744.88
2022-12-13T19:38:13.795Z,100730.56
2022-12-13T19:40:41.943Z,100741.56
2022-12-13T19:43:09.050Z,100739.78
2022-12-13T19:45:35.903Z,100745.22
2022-12-13T19:48:02.660Z,100732.59
2022-12-13T19:50:29.867Z,100729.25
2022-12-13T19:52:56.507Z,100740.16
2022-12-13T19:55:23.207Z,100733.88
2022-12-13T19:57:50.043Z,100738.19
2022-12-13T20:00:17.398Z,100736.31
2022-12-13T20:02:44.211Z,100740.16
2022-12-13T20:05:11.354Z,100727.78
2022-12-13T20:07:38.107Z,100725.91
2022-12-13T20:10:05.935Z,100717.78
2022-12-13T20:12:37.197Z,100702.78
2022-12-13T20:15:08.689Z,100704.75
2022-12-13T20:17:35.787Z,100708.88
2022-12-13T20:20:04.028Z,100704.56
2022-12-13T20:22:31.818Z,100711.13
2022-12-13T20:24:58.660Z,100710.31
2022-12-13T20:27:26.137Z,100706.78
2022-12-13T20:29:53.542Z,100692.59
2022-12-13T20:32:21.106Z,100689.03
2022-12-13T20:34:51.737Z,100688.25
2022-12-13T20:37:21.758Z,100682.78
2022-12-13T20:39:49.118Z,100679.94
2022-12-13T20:42:15.958Z,100670.41
2022-12-13T20:44:42.566Z,100668.72
2022-12-13T20:47:09.685Z,100669.56
2022-12-13T20:49:36.533Z,100660.56
2022-12-13T20:52:03.533Z,100657.19
2022-12-13T20:54:30.327Z,100652.00
2022-12-13T20:56:57.015Z,100651.28
2022-12-13T20:59:24.113Z,100636.69
2022-12-13T21:01:50.942Z,100629.69
2022-12-13T21:04:18.281Z,100622.59
2022-12-13T21:06:44.948Z,100629.88
2022-12-13T21:09:12.085Z,100616.53
2022-12-13T21:11:41.720Z,100613.09
2022-12-13T21:14:18.779Z,100605.50
2022-12-13T21:16:59.967Z,100602.78
2022-12-13T21:19:31.889Z,100607.41
2022-12-13T21:22:02.099Z,100600.50
2022-12-13T21:24:29.539Z,100597.84
2022-12-13T21:26:56.749Z,100596.94
2022-12-13T21:29:24.248Z,100597.06
2022-12-13T21:31:51.117Z,100590.91
2022-12-13T21:34:18.565Z,100579.19
2022-12-13T21:36:47.611Z,100577.19
2022-12-13T21:39:18.652Z,100562.84
2022-12-13T21:41:45.733Z,100557.63
2022-12-13T21:44:14.989Z,100556.72
2022-12-13T21:49:29.399Z,100563.06
2022-12-13T21:51:56.101Z,100555.09
2022-12-13T21:54:22.894Z,100547.91
2022-12-13T21:57:08.909Z,100551.63
2022-12-13T21:59:35.641Z,100546.38
2022-12-13T22:02:12.604Z,100543.53
2022-12-13T22:04:53.067Z,100552.72
2022-12-13T22:07:33.798Z,100552.94
2022-12-13T22:10:01.785Z,100553.91
2022-12-13T22:12:37.125Z,100543.06
2022-12-13T22:15:06.223Z,100549.31
2022-12-13T22:17:35.990Z,100530.59
2022-12-13T22:20:13.706Z,100530.59
2022-12-13T22:22:42.465Z,100531.56
2022-12-13T22:25:09.498Z,100528.72
2022-12-13T22:27:36.479Z,100521.78
2022-12-13T22:30:03.997Z,100520.03
2022-12-13T22:32:32.207Z,100508.13
2022-12-13T22:34:59.062Z,100512.84
2022-12-13T22:37:26.327Z,100513.75
2022-12-13T22:39:53.106Z,100512.78
2022-12-13T22:42:20.514Z,100512.22
2022-12-13T22:44:47.711Z,100509.44
2022-12-13T22:47:14.427Z,100491.75
2022-12-13T22:49:41.117Z,100487.69
2022-12-13T22:52:07.923Z,100482.66
2022-12-13T22:54:34.618Z,100485.47
2022-12-13T22:57:01.269Z,100487.34
2022-12-13T22:59:28.045Z,100477.44
2022-12-13T23:02:02.663Z,100476.78
2022-12-13T23:04:30.765Z,100474.22
2022-12-13T23:06:57.532Z,100473.03
2022-12-13T23:09:24.215Z,100467.28
2022-12-13T23:12:09.614Z,100469.19
2022-12-13T23:14:36.220Z,100470.97
2022-12-13T23:17:05.846Z,100467.34
2022-12-13T23:19:49.601Z,100471.00
2022-12-13T23:22:18.933Z,100472.88
2022-12-13T23:24:45.910Z,100467.56
2022-12-13T23:27:12.658Z,100480.97
2022-12-13T23:29:39.362Z,100473.78
2022-12-13T23:32:06.151Z,100477.22
2022-12-13T23:34:32.908Z,100484.66
2022-12-13T23:36:59.576Z,100474.19
2022-12-13T23:39:26.591Z,100478.56
2022-12-13T23:41:53.256Z,100475.97
2022-12-13T23:44:19.919Z,100482.19
2022-12-13T23:46:48.517Z,100475.97
2022-12-13T23:49:16.618Z,100472.25
2022-12-13T23:51:43.423Z,100475.25
2022-12-13T23:54:15.018Z,100473.69
2022-12-13T23:56:42.004Z,100474.56
2022-12-13T23:59:08.723Z,100472.03
